Time;durP1;ratioP1;P1;durP2;ratioP2;P2;SDS_P1;SDS_P2;PMS_P1;PMS_P2;Temp;Humidity;BMP_temperature;BMP_pressure;BME280_temperature;BME280_humidity;BME280_pressure;Samples;Min_cycle;Max_cycle;Signal;HPM_P1;HPM_P2
2022/07/31 00:00:22;;;;;;;;;;;;;;;20.78;60.34;101736.34;5054673;28;19924;-36
2022/07/31 00:02:47;;;;;;;;;;;;;;;20.75;60.89;101736.94;5054901;28;19919;-36
2022/07/31 00:05:13;;;;;;;;;;;;;;;20.71;60.53;101730.34;5055186;28;19919;-36
2022/07/31 00:07:38;;;;;;;;;;;;;;;20.71;60.53;101735.84;5055133;28;19935;-36
2022/07/31 00:10:04;;;;;;;;;;;;;;;20.69;60.75;101738.06;5054604;28;19916;-36
2022/07/31 00:12:29;;;;;;;;;;;;;;;20.69;60.78;101732.56;5054760;28;19919;-36
2022/07/31 00:14:54;;;;;;;;;;;;;;;20.67;60.99;101732.00;5054752;28;20326;-36
2022/07/31 00:17:20;;;;;;;;;;;;;;;20.67;61.70;101732.00;5054679;28;20002;-36
2022/07/31 00:19:45;;;;;;;;;;;;;;;20.65;62.21;101722.38;5054811;28;19959;-36
2022/07/31 00:22:12;;;;;;;;;;;;;;;20.62;62.12;101722.94;5063786;28;20314;-36
2022/07/31 00:24:37;;;;;;;;;;;;;;;20.59;61.52;101718.81;5074216;28;20011;-36
2022/07/31 00:27:03;;;;;;;;;;;;;;;20.61;61.65;101713.88;5074113;28;20066;-36
2022/07/31 00:29:29;;;;;;;;;;;;;;;20.61;61.48;101718.53;5074103;28;19919;-36
2022/07/31 00:31:55;;;;;;;;;;;;;;;20.61;61.44;101719.38;5073975;28;20376;-36
2022/07/31 00:34:20;;;;;;;;;;;;;;;20.61;61.88;101719.38;5073826;28;19919;-36
2022/07/31 00:36:46;;;;;;;;;;;;;;;20.60;61.80;101720.47;5074804;28;20345;-37
2022/07/31 00:39:11;;;;;;;;;;;;;;;20.60;61.77;101722.41;5074105;28;19955;-36
2022/07/31 00:41:41;;;;;;;;;;;;;;;20.59;62.63;101721.56;5074146;28;20356;-36
2022/07/31 00:44:06;;;;;;;;;;;;;;;20.56;62.15;101727.63;5073737;28;19916;-36
2022/07/31 00:46:31;;;;;;;;;;;;;;;20.58;62.02;101714.41;5074607;28;19912;-36
2022/07/31 00:48:56;;;;;;;;;;;;;;;20.60;62.15;101709.47;5073851;28;20369;-36
2022/07/31 00:51:21;;;;;;;;;;;;;;;20.62;61.59;101710.00;5074433;28;19923;-36
2022/07/31 00:53:47;;;;;;;;;;;;;;;20.64;61.56;101712.47;5073884;28;20287;-36
2022/07/31 00:56:12;;;;;;;;;;;;;;;20.64;61.56;101709.72;5073592;28;19917;-36
2022/07/31 00:58:37;;;;;;;;;;;;;;;20.66;61.39;101705.63;5073471;28;19912;-36
2022/07/31 01:01:02;;;;;;;;;;;;;;;20.68;61.08;101697.91;5073938;28;19912;-36
2022/07/31 01:03:28;;;;;;;;;;;;;;;20.66;61.12;101694.63;5074012;28;19912;-36
2022/07/31 01:05:53;;;;;;;;;;;;;;;20.66;61.58;101689.13;5073427;28;19927;-36
2022/07/31 01:08:18;;;;;;;;;;;;;;;20.63;61.07;101692.41;5074029;28;19919;-36
2022/07/31 01:10:43;;;;;;;;;;;;;;;20.63;61.04;101695.16;5073908;28;19919;-36
2022/07/31 01:13:12;;;;;;;;;;;;;;;20.61;60.99;101691.88;5073421;28;20362;-36
2022/07/31 01:15:38;;;;;;;;;;;;;;;20.61;60.96;101697.38;5073433;28;20253;-36
2022/07/31 01:18:04;;;;;;;;;;;;;;;20.62;60.87;101696.28;5074184;28;19918;-36
2022/07/31 01:20:30;;;;;;;;;;;;;;;20.63;60.62;101695.16;5073696;28;19912;-36
2022/07/31 01:22:55;;;;;;;;;;;;;;;20.63;60.80;101697.09;5073182;28;19916;-36
2022/07/31 01:25:33;;;;;;;;;;;;;;;20.61;60.65;101696.56;5073443;28;20372;-36
2022/07/31 01:28:08;;;;;;;;;;;;;;;20.58;60.73;101698.75;5073436;28;19935;-36
2022/07/31 01:30:40;;;;;;;;;;;;;;;20.57;60.60;101699.84;5074113;28;20356;-36
2022/07/31 01:33:09;;;;;;;;;;;;;;;20.53;60.83;101695.19;5073079;28;19939;-36
2022/07/31 01:35:38;;;;;;;;;;;;;;;20.47;60.62;101690.81;5073311;28;20345;-36
2022/07/31 01:38:07;;;;;;;;;;;;;;;20.45;61.12;101701.22;5073234;28;20018;-36
2022/07/31 01:40:34;;;;;;;;;;;;;;;20.43;60.98;101696.00;5073175;28;20350;-36
2022/07/31 01:43:26;;;;;;;;;;;;;;;20.40;60.93;101695.72;5073707;28;19912;-36
2022/07/31 01:45:56;;;;;;;;;;;;;;;20.36;61.08;101694.66;5071530;28;19913;-36
2022/07/31 01:48:22;;;;;;;;;;;;;;;20.35;61.12;101692.97;5073786;28;19999;-36
2022/07/31 01:50:48;;;;;;;;;;;;;;;20.32;61.36;101694.38;5073680;28;19966;-36
2022/07/31 01:53:15;;;;;;;;;;;;;;;20.31;61.20;101693.53;5073336;28;19920;-36
2022/07/31 01:55:41;;;;;;;;;;;;;;;20.28;61.26;101691.34;5073799;28;20256;-36
2022/07/31 01:58:07;;;;;;;;;;;;;;;20.26;61.17;101687.25;5073349;28;20008;-36
2022/07/31 02:00:33;;;;;;;;;;;;;;;20.24;61.37;101686.66;5073196;28;19916;-36
2022/07/31 02:02:58;;;;;;;;;;;;;;;20.22;61.28;101697.13;5073557;28;19935;-36
2022/07/31 02:05:24;;;;;;;;;;;;;;;20.18;61.46;101691.34;5073519;28;19973;-36
2022/07/31 02:07:50;;;;;;;;;;;;;;;20.15;61.50;101699.31;5073232;28;19912;-36
2022/07/31 02:10:16;;;;;;;;;;;;;;;20.10;61.67;101702.03;5073220;28;19913;-36
2022/07/31 02:12:42;;;;;;;;;;;;;;;20.04;61.81;101698.47;5072895;28;20368;-36
2022/07/31 02:15:09;;;;;;;;;;;;;;;19.96;61.78;101691.63;5073179;28;19912;-36
2022/07/31 02:17:35;;;;;;;;;;;;;;;19.91;62.12;101688.03;5072597;28;19914;-36
2022/07/31 02:20:01;;;;;;;;;;;;;;;19.85;62.28;101689.94;5072903;28;19912;-36
2022/07/31 02:22:28;;;;;;;;;;;;;;;19.79;62.29;101680.88;5073319;28;19913;-36
2022/07/31 02:24:53;;;;;;;;;;;;;;;19.76;62.53;101688.84;5073523;28;19974;-37
2022/07/31 02:27:19;;;;;;;;;;;;;;;19.72;62.48;101685.00;5072424;28;19912;-36
2022/07/31 02:29:44;;;;;;;;;;;;;;;19.73;62.42;101687.47;5073508;28;19913;-36
2022/07/31 02:32:10;;;;;;;;;;;;;;;19.75;62.43;101679.78;5072706;28;19912;-36
2022/07/31 02:34:36;;;;;;;;;;;;;;;19.77;62.61;101685.00;5072245;28;19951;-36
2022/07/31 02:37:01;;;;;;;;;;;;;;;19.78;62.34;101694.91;5071330;28;19916;-36
2022/07/31 02:39:28;;;;;;;;;;;;;;;19.79;62.56;101693.78;5073350;28;19919;-36
2022/07/31 02:41:54;;;;;;;;;;;;;;;19.78;62.49;101694.91;5072575;28;20367;-36
2022/07/31 02:44:20;;;;;;;;;;;;;;;19.75;62.75;101690.75;5072631;28;19919;-36
2022/07/31 02:46:45;;;;;;;;;;;;;;;19.70;62.96;101693.50;5073101;28;19913;-36
2022/07/31 02:49:12;;;;;;;;;;;;;;;19.61;62.71;101692.38;5072278;28;19912;-36
2022/07/31 02:51:38;;;;;;;;;;;;;;;19.59;63.17;101683.56;5071955;28;19958;-36
2022/07/31 02:54:04;;;;;;;;;;;;;;;19.54;63.47;101683.56;5073066;28;20015;-37
2022/07/31 02:56:30;;;;;;;;;;;;;;;19.51;63.61;101684.09;5072786;28;21069;-37
2022/07/31 02:58:55;;;;;;;;;;;;;;;19.43;64.25;101670.91;5075732;28;20350;-36
2022/07/31 03:01:20;;;;;;;;;;;;;;;19.37;64.45;101667.31;5076031;28;19987;-37
2022/07/31 03:03:45;;;;;;;;;;;;;;;19.30;64.69;101675.81;5076358;28;19966;-35
2022/07/31 03:06:11;;;;;;;;;;;;;;;19.27;64.68;101681.00;5076273;28;19912;-36
2022/07/31 03:08:37;;;;;;;;;;;;;;;19.23;65.36;101678.00;5075834;28;19965;-36
2022/07/31 03:11:02;;;;;;;;;;;;;;;19.21;65.53;101673.84;5076086;28;20291;-36
2022/07/31 03:13:29;;;;;;;;;;;;;;;19.17;65.28;101670.81;5075489;28;19912;-36
2022/07/31 03:15:54;;;;;;;;;;;;;;;19.15;66.09;101666.72;5076092;28;19912;-36
2022/07/31 03:18:20;;;;;;;;;;;;;;;19.10;66.77;101659.28;5075699;28;20283;-36
2022/07/31 03:20:50;;;;;;;;;;;;;;;19.09;65.80;101660.38;5076118;28;19913;-36
2022/07/31 03:23:15;;;;;;;;;;;;;;;19.10;65.92;101658.47;5075680;28;19988;-36
2022/07/31 03:25:41;;;;;;;;;;;;;;;19.08;66.64;101658.75;5075680;28;20290;-36
2022/07/31 03:28:07;;;;;;;;;;;;;;;19.06;66.17;101655.44;5075552;28;19919;-36
2022/07/31 03:30:33;;;;;;;;;;;;;;;19.07;66.22;101662.56;5075565;28;20430;-36
2022/07/31 03:33:01;;;;;;;;;;;;;;;19.07;66.45;101662.56;5075166;28;20008;-36
2022/07/31 03:35:27;;;;;;;;;;;;;;;19.10;65.80;101662.03;5075677;28;20328;-36
2022/07/31 03:37:52;;;;;;;;;;;;;;;19.10;66.74;101659.28;5076017;28;19923;-36
2022/07/31 03:40:18;;;;;;;;;;;;;;;19.09;68.26;101654.09;5075242;28;19912;-36
2022/07/31 03:42:44;;;;;;;;;;;;;;;19.07;66.53;101659.00;5074945;28;20003;-36
2022/07/31 03:45:10;;;;;;;;;;;;;;;19.07;69.61;101657.06;5075460;28;19919;-36
2022/07/31 03:47:36;;;;;;;;;;;;;;;19.07;66.80;101659.81;5074938;28;19912;-36
2022/07/31 03:50:02;;;;;;;;;;;;;;;19.08;67.43;101657.91;5075469;28;19920;-36
2022/07/31 03:52:28;;;;;;;;;;;;;;;19.05;67.51;101656.53;5074773;28;20045;-36
2022/07/31 03:54:53;;;;;;;;;;;;;;;19.06;68.07;101660.09;5074732;28;19970;-36
2022/07/31 03:57:19;;;;;;;;;;;;;;;19.02;67.54;101654.31;5075232;28;19920;-36
2022/07/31 03:59:45;;;;;;;;;;;;;;;18.98;67.92;101648.56;5075077;28;20352;-36
2022/07/31 04:02:10;;;;;;;;;;;;;;;18.99;68.17;101663.91;5074855;28;19919;-35
2022/07/31 04:04:36;;;;;;;;;;;;;;;19.00;67.32;101667.47;5075106;28;19970;-36
2022/07/31 04:07:02;;;;;;;;;;;;;;;19.00;67.20;101662.81;5074501;28;20003;-35
2022/07/31 04:09:28;;;;;;;;;;;;;;;19.00;68.06;101662.00;5073689;28;19912;-36
2022/07/31 04:11:53;;;;;;;;;;;;;;;18.99;67.71;101665.84;5074668;28;19966;-36
2022/07/31 04:14:18;;;;;;;;;;;;;;;18.98;67.67;101659.53;5074372;28;19912;-36
2022/07/31 04:16:43;;;;;;;;;;;;;;;18.97;67.72;101660.59;5075361;28;19912;-36
2022/07/31 04:19:09;;;;;;;;;;;;;;;18.97;67.80;101668.00;5074429;28;19912;-36
2022/07/31 04:21:35;;;;;;;;;;;;;;;18.96;68.26;101655.41;5074526;28;19919;-36
2022/07/31 04:24:00;;;;;;;;;;;;;;;18.94;69.65;101660.31;5075130;28;19958;-36
2022/07/31 04:26:27;;;;;;;;;;;;;;;18.90;68.68;101668.25;5074146;28;19913;-35
2022/07/31 04:28:52;;;;;;;;;;;;;;;18.91;69.11;101669.06;5074117;28;20066;-36
2022/07/31 04:31:17;;;;;;;;;;;;;;;18.92;68.35;101676.19;5073964;28;20400;-36
2022/07/31 04:33:42;;;;;;;;;;;;;;;18.91;69.89;101675.38;5074465;28;19916;-36
2022/07/31 04:36:08;;;;;;;;;;;;;;;18.88;70.14;101678.63;5074380;28;19919;-36
2022/07/31 04:38:33;;;;;;;;;;;;;;;18.89;69.74;101677.56;5073805;28;19969;-36
2022/07/31 04:40:58;;;;;;;;;;;;;;;18.88;70.22;101675.06;5073807;28;20372;-37
2022/07/31 04:43:23;;;;;;;;;;;;;;;18.87;69.15;101670.69;5074241;28;19912;-36
2022/07/31 04:45:48;;;;;;;;;;;;;;;18.88;69.63;101677.81;5074117;28;19951;-36
2022/07/31 04:48:13;;;;;;;;;;;;;;;18.89;68.61;101672.09;5073915;28;19916;-36
2022/07/31 04:50:39;;;;;;;;;;;;;;;18.90;69.77;101665.50;5074131;28;19965;-37
2022/07/31 04:53:04;;;;;;;;;;;;;;;18.88;71.33;101669.59;5074014;28;20060;-37
2022/07/31 04:55:29;;;;;;;;;;;;;;;18.85;71.48;101670.97;5074059;28;19936;-36
2022/07/31 04:57:54;;;;;;;;;;;;;;;18.86;70.07;101671.78;5072689;28;19920;-36
2022/07/31 05:00:20;;;;;;;;;;;;;;;18.88;70.41;101675.06;5074095;28;19932;-37
2022/07/31 05:02:45;;;;;;;;;;;;;;;18.89;70.89;101665.78;5073263;28;20066;-36
2022/07/31 05:05:10;;;;;;;;;;;;;;;18.90;70.85;101667.44;5073458;28;19947;-36
2022/07/31 05:07:36;;;;;;;;;;;;;;;18.89;70.71;101665.78;5073276;28;19912;-37
2022/07/31 05:10:01;;;;;;;;;;;;;;;18.89;71.08;101665.78;5073159;28;19912;-36
2022/07/31 05:12:26;;;;;;;;;;;;;;;18.88;70.69;101666.84;5073225;28;19916;-36
2022/07/31 05:14:52;;;;;;;;;;;;;;;18.87;71.54;101652.34;5074052;28;20427;-36
2022/07/31 05:17:17;;;;;;;;;;;;;;;18.85;72.28;101665.50;5073604;28;19947;-36
2022/07/31 05:19:42;;;;;;;;;;;;;;;18.84;72.50;101658.38;5073622;28;19920;-36
2022/07/31 05:22:08;;;;;;;;;;;;;;;18.82;74.58;101652.31;5073311;28;20011;-36
2022/07/31 05:24:33;;;;;;;;;;;;;;;18.77;74.48;101650.38;5073805;28;19913;-36
2022/07/31 05:26:58;;;;;;;;;;;;;;;18.75;73.06;101657.22;5073086;28;19920;-36
2022/07/31 05:29:23;;;;;;;;;;;;;;;18.74;76.42;101648.19;5073011;28;20375;-36
2022/07/31 05:31:49;;;;;;;;;;;;;;;18.72;75.93;101644.03;5073574;28;19912;-36
2022/07/31 05:34:14;;;;;;;;;;;;;;;18.69;76.19;101639.94;5073764;28;19912;-36
2022/07/31 05:36:39;;;;;;;;;;;;;;;18.70;74.20;101641.56;5072948;28;20363;-36
2022/07/31 05:39:04;;;;;;;;;;;;;;;18.72;75.86;101628.41;5072858;28;19920;-36
2022/07/31 05:41:32;;;;;;;;;;;;;;;18.71;75.09;101637.75;5072933;28;19912;-36
2022/07/31 05:43:58;;;;;;;;;;;;;;;18.70;74.36;101644.31;5073068;28;19955;-36
2022/07/31 05:46:23;;;;;;;;;;;;;;;18.70;75.61;101647.06;5073884;28;19948;-36
2022/07/31 05:48:48;;;;;;;;;;;;;;;18.71;76.42;101653.34;5073108;28;19913;-36
2022/07/31 05:51:13;;;;;;;;;;;;;;;18.71;77.83;101648.69;5073445;28;20352;-36
2022/07/31 05:53:39;;;;;;;;;;;;;;;18.70;77.09;101648.97;5073032;28;19912;-36
2022/07/31 05:56:05;;;;;;;;;;;;;;;18.72;77.19;101650.34;5073308;28;20375;-36
2022/07/31 05:58:30;;;;;;;;;;;;;;;18.75;77.17;101643.53;5072484;28;19920;-36
2022/07/31 06:00:56;;;;;;;;;;;;;;;18.77;77.18;101646.81;5073420;28;19912;-36
2022/07/31 06:03:22;;;;;;;;;;;;;;;18.78;76.64;101642.97;5072939;28;19921;-36
2022/07/31 06:05:47;;;;;;;;;;;;;;;18.78;76.15;101649.28;5073526;28;19919;-36
2022/07/31 06:08:12;;;;;;;;;;;;;;;18.80;76.25;101659.16;5073150;28;20232;-36
2022/07/31 06:10:38;;;;;;;;;;;;;;;18.82;76.78;101660.53;5072747;28;20330;-36
2022/07/31 06:13:03;;;;;;;;;;;;;;;18.87;75.51;101651.50;5072770;28;19912;-36
2022/07/31 06:15:29;;;;;;;;;;;;;;;18.89;75.81;101649.34;5073177;28;19912;-36
2022/07/31 06:17:54;;;;;;;;;;;;;;;18.91;76.95;101653.44;5073062;28;19913;-36
2022/07/31 06:20:19;;;;;;;;;;;;;;;18.92;77.49;101648.78;5072860;28;19913;-36
2022/07/31 06:22:44;;;;;;;;;;;;;;;18.93;78.20;101647.69;5073930;28;19959;-36
2022/07/31 06:25:10;;;;;;;;;;;;;;;18.96;77.91;101650.72;5072627;28;19919;-36
2022/07/31 06:27:36;;;;;;;;;;;;;;;19.04;76.61;101646.66;5072517;28;19919;-36
2022/07/31 06:30:02;;;;;;;;;;;;;;;19.09;78.24;101643.94;5072615;28;19919;-36
2022/07/31 06:32:27;;;;;;;;;;;;;;;19.10;78.61;101645.59;5074012;28;19912;-36
2022/07/31 06:34:53;;;;;;;;;;;;;;;19.11;80.97;101644.47;5076907;28;20253;-36
2022/07/31 06:37:18;;;;;;;;;;;;;;;19.15;78.31;101640.13;5076277;28;19913;-36
2022/07/31 06:39:43;;;;;;;;;;;;;;;19.18;78.56;101645.06;5076453;28;19962;-36
2022/07/31 06:42:09;;;;;;;;;;;;;;;19.27;78.63;101648.09;5076526;28;19964;-36
2022/07/31 06:44:34;;;;;;;;;;;;;;;19.31;79.33;101643.72;5076206;28;19956;-36
2022/07/31 06:46:59;;;;;;;;;;;;;;;19.36;78.75;101640.16;5076901;28;19959;-36
2022/07/31 06:49:24;;;;;;;;;;;;;;;19.38;80.28;101638.00;5076720;28;19916;-36
2022/07/31 06:51:50;;;;;;;;;;;;;;;19.39;78.94;101639.63;5077172;28;20389;-36
2022/07/31 06:54:16;;;;;;;;;;;;;;;19.41;79.37;101634.69;5076800;28;19919;-36
2022/07/31 06:56:41;;;;;;;;;;;;;;;19.40;80.24;101644.03;5077065;28;19916;-36
2022/07/31 06:59:06;;;;;;;;;;;;;;;19.41;79.82;101651.16;5076156;28;19971;-36
2022/07/31 07:01:32;;;;;;;;;;;;;;;19.46;79.03;101648.41;5076420;28;19916;-36
2022/07/31 07:03:57;;;;;;;;;;;;;;;19.50;80.79;101644.03;5076118;28;19912;-36
2022/07/31 07:06:23;;;;;;;;;;;;;;;19.52;80.21;101655.56;5076085;28;19999;-36
2022/07/31 07:08:48;;;;;;;;;;;;;;;19.56;79.83;101646.50;5075790;28;19913;-36
2022/07/31 07:11:13;;;;;;;;;;;;;;;19.59;80.80;101642.41;5076121;28;20283;-36
2022/07/31 07:13:39;;;;;;;;;;;;;;;19.60;79.54;101641.34;5076002;28;19913;-36
2022/07/31 07:16:04;;;;;;;;;;;;;;;19.62;80.53;101647.41;5076452;28;19924;-36
2022/07/31 07:18:29;;;;;;;;;;;;;;;19.64;79.66;101636.16;5076335;28;19912;-36
2022/07/31 07:20:55;;;;;;;;;;;;;;;19.72;79.23;101650.16;5075531;28;19949;-36
2022/07/31 07:23:20;;;;;;;;;;;;;;;19.79;79.48;101642.47;5075854;28;20264;-36
2022/07/31 07:25:45;;;;;;;;;;;;;;;19.85;80.31;101639.72;5076622;28;19923;-36
2022/07/31 07:28:11;;;;;;;;;;;;;;;19.91;79.86;101638.63;5075746;28;19912;-36
2022/07/31 07:30:36;;;;;;;;;;;;;;;19.94;80.50;101638.91;5076409;28;20402;-36
2022/07/31 07:33:01;;;;;;;;;;;;;;;19.98;80.25;101633.69;5076140;28;19939;-36
2022/07/31 07:35:27;;;;;;;;;;;;;;;20.03;79.72;101633.69;5075831;28;19935;-36
2022/07/31 07:37:52;;;;;;;;;;;;;;;20.09;80.09;101635.34;5076000;28;19916;-36
2022/07/31 07:40:18;;;;;;;;;;;;;;;20.14;79.88;101629.84;5075414;28;20360;-36
2022/07/31 07:42:43;;;;;;;;;;;;;;;20.22;79.38;101636.69;5074949;28;19919;-36
2022/07/31 07:45:09;;;;;;;;;;;;;;;20.28;79.50;101625.41;5075937;28;19919;-36
2022/07/31 07:47:34;;;;;;;;;;;;;;;20.36;79.69;101620.47;5075617;28;19989;-35
2022/07/31 07:49:59;;;;;;;;;;;;;;;20.46;78.67;101614.97;5075956;28;19912;-36
2022/07/31 07:52:25;;;;;;;;;;;;;;;20.53;78.72;101612.75;5075564;28;19913;-36
2022/07/31 07:54:50;;;;;;;;;;;;;;;20.59;79.04;101617.13;5075287;28;19912;-36
2022/07/31 07:57:16;;;;;;;;;;;;;;;20.64;78.30;101622.63;5075562;28;19916;-36
2022/07/31 07:59:41;;;;;;;;;;;;;;;20.61;79.35;101619.63;5074813;28;19912;-36
2022/07/31 08:02:06;;;;;;;;;;;;;;;20.62;78.01;101621.25;5074834;28;19913;-35
2022/07/31 08:04:31;;;;;;;;;;;;;;;20.66;78.04;101623.19;5075585;28;19922;-36
2022/07/31 08:06:57;;;;;;;;;;;;;;;20.66;78.02;101623.19;5075009;28;20059;-36
2022/07/31 08:09:23;;;;;;;;;;;;;;;20.70;78.65;101624.25;5075622;28;19934;-36
2022/07/31 08:11:48;;;;;;;;;;;;;;;20.71;79.07;101623.16;5074962;28;19919;-36
2022/07/31 08:14:13;;;;;;;;;;;;;;;20.80;78.77;101624.22;5074656;28;20360;-36
2022/07/31 08:16:39;;;;;;;;;;;;;;;20.86;78.17;101616.78;5074818;28;19912;-36
2022/07/31 08:19:04;;;;;;;;;;;;;;;20.91;78.65;101619.50;5074767;28;19916;-36
2022/07/31 08:21:29;;;;;;;;;;;;;;;20.93;77.90;101619.22;5075170;28;19930;-36
2022/07/31 08:23:55;;;;;;;;;;;;;;;20.97;78.34;101620.28;5074294;28;19917;-36
2022/07/31 08:26:20;;;;;;;;;;;;;;;21.06;78.26;101616.69;5074559;28;19913;-36
2022/07/31 08:28:45;;;;;;;;;;;;;;;21.18;77.86;101619.09;5074227;28;19927;-36
2022/07/31 08:31:10;;;;;;;;;;;;;;;21.23;77.75;101615.50;5075089;28;19912;-36
2022/07/31 08:33:36;;;;;;;;;;;;;;;21.22;77.75;101614.66;5074121;28;19916;-36
2022/07/31 08:36:01;;;;;;;;;;;;;;;21.23;77.66;101619.09;5075216;28;20243;-36
2022/07/31 08:38:27;;;;;;;;;;;;;;;21.22;77.47;101613.84;5074883;28;20304;-36
2022/07/31 08:40:53;;;;;;;;;;;;;;;21.18;77.30;101616.34;5074829;28;20022;-36
2022/07/31 08:43:18;;;;;;;;;;;;;;;21.16;77.82;101614.97;5074230;28;20340;-36
2022/07/31 08:45:44;;;;;;;;;;;;;;;21.17;77.32;101616.63;5074266;28;19920;-36
2022/07/31 08:48:10;;;;;;;;;;;;;;;21.09;77.73;101620.81;5073934;28;20368;-36
2022/07/31 08:50:39;;;;;;;;;;;;;;;21.13;77.40;101621.03;5074773;28;20335;-36
2022/07/31 08:53:05;;;;;;;;;;;;;;;21.18;76.92;101613.59;5074927;28;19947;-36
2022/07/31 08:55:31;;;;;;;;;;;;;;;21.20;77.81;101608.63;5073751;28;20301;-36
2022/07/31 08:57:57;;;;;;;;;;;;;;;21.21;77.50;101618.53;5074206;28;19916;-36
2022/07/31 09:00:22;;;;;;;;;;;;;;;21.17;77.59;101617.44;5074199;28;19927;-36
2022/07/31 09:02:48;;;;;;;;;;;;;;;21.14;77.67;101623.53;5073675;28;19912;-36
2022/07/31 09:05:14;;;;;;;;;;;;;;;21.15;78.22;101621.59;5074641;28;19912;-35
2022/07/31 09:07:40;;;;;;;;;;;;;;;21.18;77.41;101618.25;5073775;28;19957;-35
2022/07/31 09:10:22;;;;;;;;;;;;;;;21.18;78.22;101615.50;5074353;28;20340;-35
2022/07/31 09:12:47;;;;;;;;;;;;;;;21.15;78.32;101610.59;5073790;28;19947;-36
2022/07/31 09:15:23;;;;;;;;;;;;;;;21.13;78.90;101608.13;5073993;28;19947;-36
2022/07/31 09:17:48;;;;;;;;;;;;;;;21.16;78.01;101603.97;5073670;28;20368;-36
2022/07/31 09:20:18;;;;;;;;;;;;;;;21.18;78.53;101602.59;5073270;28;19955;-36
2022/07/31 09:22:43;;;;;;;;;;;;;;;21.15;78.94;101614.16;5074462;28;19919;-36
2022/07/31 09:25:14;;;;;;;;;;;;;;;21.12;79.19;101603.72;5074000;28;20313;-36
2022/07/31 09:27:40;;;;;;;;;;;;;;;21.18;78.37;101608.09;5074114;28;19912;-36
2022/07/31 09:30:06;;;;;;;;;;;;;;;21.29;78.29;101606.94;5074374;28;19924;-36
2022/07/31 09:32:31;;;;;;;;;;;;;;;21.42;77.79;101613.75;5073499;28;20387;-36
2022/07/31 09:35:05;;;;;;;;;;;;;;;21.54;78.04;101613.41;5073533;28;19973;-36
2022/07/31 09:37:31;;;;;;;;;;;;;;;21.70;78.09;101600.34;5074138;28;19912;-36
2022/07/31 09:39:56;;;;;;;;;;;;;;;21.84;78.24;101598.59;5073716;28;19912;-37
2022/07/31 09:42:22;;;;;;;;;;;;;;;22.01;77.08;101604.50;5073998;28;20034;-36
2022/07/31 09:44:48;;;;;;;;;;;;;;;22.21;76.44;101606.25;5073847;28;19995;-36
2022/07/31 09:47:27;;;;;;;;;;;;;;;22.31;75.99;101605.34;5073449;28;19912;-36
2022/07/31 09:49:54;;;;;;;;;;;;;;;22.33;75.51;101603.09;5073657;28;20330;-36
2022/07/31 09:52:19;;;;;;;;;;;;;;;22.30;75.25;101599.00;5073406;28;19919;-36
2022/07/31 09:54:45;;;;;;;;;;;;;;;22.29;75.53;101593.78;5073365;28;20279;-36
2022/07/31 09:57:11;;;;;;;;;;;;;;;22.30;75.91;101600.91;5073159;28;19920;-36
2022/07/31 09:59:36;;;;;;;;;;;;;;;22.35;76.10;101603.63;5074172;28;19913;-36
2022/07/31 10:02:03;;;;;;;;;;;;;;;22.42;75.52;101598.59;5073479;28;20283;-36
2022/07/31 10:04:28;;;;;;;;;;;;;;;22.51;75.45;101594.09;5073962;28;20287;-36
2022/07/31 10:06:55;;;;;;;;;;;;;;;22.62;75.54;101592.84;5073419;28;19912;-36
2022/07/31 10:09:20;;;;;;;;;;;;;;;22.73;75.34;101601.81;5077514;28;19958;-36
2022/07/31 10:11:47;;;;;;;;;;;;;;;22.84;74.56;101599.78;5077618;28;19912;-36
2022/07/31 10:14:17;;;;;;;;;;;;;;;22.94;74.33;101588.63;5077278;28;19916;-36
2022/07/31 10:16:43;;;;;;;;;;;;;;;23.09;73.90;101595.88;5077351;28;19916;-36
2022/07/31 10:19:11;;;;;;;;;;;;;;;23.18;73.56;101594.09;5076723;28;20326;-36
2022/07/31 10:21:41;;;;;;;;;;;;;;;23.23;73.03;101590.41;5076732;28;20004;-36
2022/07/31 10:24:06;;;;;;;;;;;;;;;23.27;73.04;101591.47;5076709;28;19918;-36
2022/07/31 10:26:32;;;;;;;;;;;;;;;23.23;72.77;101587.66;5077066;28;19916;-36
2022/07/31 10:28:58;;;;;;;;;;;;;;;23.22;72.80;101583.25;5076619;28;19995;-36
2022/07/31 10:31:23;;;;;;;;;;;;;;;23.23;72.83;101582.13;5077089;28;19912;-36
2022/07/31 10:33:49;;;;;;;;;;;;;;;23.29;71.97;101583.72;5076589;28;20006;-37
2022/07/31 10:36:20;;;;;;;;;;;;;;;23.36;72.49;101579.47;5076973;28;20406;-36
2022/07/31 10:38:57;;;;;;;;;;;;;;;23.46;72.32;101572.13;5076545;28;19969;-36
2022/07/31 10:41:31;;;;;;;;;;;;;;;23.57;72.01;101570.84;5076761;28;20233;-36
2022/07/31 10:44:06;;;;;;;;;;;;;;;23.68;71.25;101568.78;5076785;28;20003;-37
2022/07/31 10:46:32;;;;;;;;;;;;;;;23.70;71.36;101575.63;5076274;28;19958;-37
2022/07/31 10:48:58;;;;;;;;;;;;;;;23.72;70.30;101586.38;5076483;28;19913;-37
2022/07/31 10:51:25;;;;;;;;;;;;;;;23.70;69.80;101569.31;5076768;28;19944;-37
2022/07/31 10:53:54;;;;;;;;;;;;;;;23.58;69.61;101567.00;5076433;28;19919;-37
2022/07/31 10:56:20;;;;;;;;;;;;;;;23.45;69.96;101578.78;5077090;28;20355;-37
2022/07/31 10:58:49;;;;;;;;;;;;;;;23.31;70.43;101575.97;5077179;28;19916;-37
2022/07/31 11:01:14;;;;;;;;;;;;;;;23.22;70.84;101567.53;5075855;28;19923;-37
2022/07/31 11:03:43;;;;;;;;;;;;;;;23.16;71.33;101565.97;5076080;28;19912;-37
2022/07/31 11:06:08;;;;;;;;;;;;;;;23.11;71.28;101566.84;5076275;28;19913;-37
2022/07/31 11:08:40;;;;;;;;;;;;;;;23.10;71.76;101559.72;5076062;28;19924;-37
2022/07/31 11:11:05;;;;;;;;;;;;;;;23.11;71.73;101557.78;5075964;28;20026;-37
2022/07/31 11:13:32;;;;;;;;;;;;;;;23.21;72.25;101551.28;5075934;28;19913;-37
2022/07/31 11:16:04;;;;;;;;;;;;;;;23.38;71.25;101544.13;5076457;28;20434;-37
2022/07/31 11:18:29;;;;;;;;;;;;;;;23.56;70.67;101544.38;5075326;28;19919;-37
2022/07/31 11:20:58;;;;;;;;;;;;;;;23.63;70.12;101550.34;5076115;28;19913;-37
2022/07/31 11:23:27;;;;;;;;;;;;;;;23.64;70.42;101543.72;5075440;28;19981;-37
2022/07/31 11:25:57;;;;;;;;;;;;;;;23.69;69.68;101542.81;5075976;28;19916;-37
2022/07/31 11:28:23;;;;;;;;;;;;;;;23.79;69.98;101540.69;5076392;28;19917;-37
2022/07/31 11:30:49;;;;;;;;;;;;;;;24.01;69.52;101542.78;5076250;28;20355;-37
2022/07/31 11:33:15;;;;;;;;;;;;;;;24.20;68.48;101531.63;5075351;28;19912;-37
2022/07/31 11:35:40;;;;;;;;;;;;;;;24.37;67.87;101531.06;5076141;28;19927;-37
2022/07/31 11:38:06;;;;;;;;;;;;;;;24.40;67.38;101536.81;5075513;28;19919;-37
2022/07/31 11:40:31;;;;;;;;;;;;;;;24.37;66.85;101531.88;5075208;28;19919;-37
2022/07/31 11:42:57;;;;;;;;;;;;;;;24.33;67.59;101530.81;5075516;28;20375;-37
2022/07/31 11:45:22;;;;;;;;;;;;;;;24.35;67.24;101522.22;5075396;28;20015;-37
2022/07/31 11:47:49;;;;;;;;;;;;;;;24.39;67.02;101529.63;5076120;28;20019;-36
2022/07/31 11:50:14;;;;;;;;;;;;;;;24.58;67.19;101526.75;5075616;28;20000;-37
2022/07/31 11:52:42;;;;;;;;;;;;;;;24.81;66.26;101516.56;5075234;28;20428;-37
2022/07/31 11:55:12;;;;;;;;;;;;;;;24.90;64.75;101517.47;5075016;28;19919;-37
2022/07/31 11:57:38;;;;;;;;;;;;;;;24.88;65.37;101525.25;5075236;28;19923;-37
2022/07/31 12:00:07;;;;;;;;;;;;;;;24.85;66.27;101517.59;5075050;28;19913;-37
2022/07/31 12:02:32;;;;;;;;;;;;;;;24.85;66.14;101520.38;5074961;28;20010;-37
2022/07/31 12:05:00;;;;;;;;;;;;;;;24.92;65.05;101523.50;5074680;28;19940;-37
2022/07/31 12:07:25;;;;;;;;;;;;;;;25.00;65.11;101526.69;5075154;28;19919;-37
2022/07/31 12:09:51;;;;;;;;;;;;;;;25.01;64.53;101523.59;5075031;28;19920;-37
2022/07/31 12:12:17;;;;;;;;;;;;;;;24.97;64.57;101516.22;5074849;28;20002;-37
2022/07/31 12:14:43;;;;;;;;;;;;;;;24.85;65.13;101522.31;5074868;28;19916;-37
2022/07/31 12:17:17;;;;;;;;;;;;;;;24.67;65.73;101522.13;5075561;28;19935;-37
2022/07/31 12:19:42;;;;;;;;;;;;;;;24.66;66.18;101525.22;5075309;28;19923;-37
2022/07/31 12:22:21;;;;;;;;;;;;;;;24.71;65.88;101518.75;5075172;28;20003;-37
2022/07/31 12:24:57;;;;;;;;;;;;;;;24.95;66.05;101515.72;5074994;28;19919;-37
2022/07/31 12:27:22;;;;;;;;;;;;;;;25.11;64.84;101508.72;5074662;28;19924;-37
2022/07/31 12:29:47;;;;;;;;;;;;;;;25.13;64.25;101520.28;5074028;28;19916;-37